Time;durP1;ratioP1;P1;durP2;ratioP2;P2;SDS_P1;SDS_P2;PMS_P1;PMS_P2;Temp;Humidity;BMP_temperature;BMP_pressure;BME280_temperature;BME280_humidity;BME280_pressure;Samples;Min_cycle;Max_cycle;Signal;HPM_P1;HPM_P2
2024/03/01 00:01:53;;;;;;;34.88;13.95;;;;;;;4.07;100.00;99742.22;5162176;28;20112;-74
2024/03/01 00:04:23;;;;;;;31.65;13.85;;;;;;;4.06;100.00;99739.66;5178638;28;20018;-74
2024/03/01 00:06:54;;;;;;;32.10;14.18;;;;;;;4.19;100.00;99741.09;5178869;28;20132;-74
2024/03/01 00:09:24;;;;;;;30.30;13.82;;;;;;;4.29;100.00;99738.25;5178101;28;20427;-73
2024/03/01 00:11:54;;;;;;;31.73;14.07;;;;;;;4.19;100.00;99726.44;5178006;28;20377;-74
2024/03/01 00:14:24;;;;;;;32.70;14.45;;;;;;;4.13;100.00;99725.72;5177801;28;20037;-74
2024/03/01 00:16:56;;;;;;;31.13;14.18;;;;;;;4.21;100.00;99716.91;5178808;28;20033;-73
2024/03/01 00:19:26;;;;;;;30.73;14.23;;;;;;;4.27;100.00;99724.50;5178118;28;20026;-74
2024/03/01 00:21:56;;;;;;;28.30;13.88;;;;;;;4.31;100.00;99725.28;5178466;28;20079;-74
2024/03/01 00:24:27;;;;;;;30.52;14.50;;;;;;;4.25;100.00;99723.69;5178188;28;20057;-73
2024/03/01 00:26:57;;;;;;;29.63;13.85;;;;;;;4.29;100.00;99721.88;5177643;28;20419;-74
2024/03/01 00:29:27;;;;;;;30.27;14.60;;;;;;;4.23;100.00;99727.19;5175635;28;20025;-74
2024/03/01 00:31:58;;;;;;;31.80;14.43;;;;;;;4.17;100.00;99732.50;5177676;28;20365;-74
2024/03/01 00:34:28;;;;;;;32.70;14.55;;;;;;;4.19;100.00;99731.59;5178347;28;20049;-73
2024/03/01 00:36:59;;;;;;;33.78;15.48;;;;;;;4.14;100.00;99728.25;5177638;28;20125;-72
2024/03/01 00:39:30;;;;;;;34.08;15.63;;;;;;;4.10;100.00;99725.81;5178271;28;20029;-73
2024/03/01 00:42:01;;;;;;;35.25;14.73;;;;;;;4.11;100.00;99712.81;5177701;28;20025;-73
2024/03/01 00:44:31;;;;;;;33.88;15.27;;;;;;;3.96;100.00;99707.16;5176199;28;20029;-74
2024/03/01 00:47:01;;;;;;;32.50;15.10;;;;;;;3.88;100.00;99704.75;5174839;28;20025;-73
2024/03/01 00:49:32;;;;;;;33.70;15.25;;;;;;;4.00;100.00;99703.63;5177643;28;20029;-73
2024/03/01 00:52:02;;;;;;;34.15;15.70;;;;;;;4.09;100.00;99706.00;5176933;28;20115;-73
2024/03/01 00:54:33;;;;;;;32.45;14.80;;;;;;;3.98;100.00;99708.81;5176105;28;20110;-74
2024/03/01 00:57:03;;;;;;;30.25;14.35;;;;;;;4.08;100.00;99712.91;5177546;28;20033;-73
2024/03/01 00:59:33;;;;;;;34.40;14.48;;;;;;;4.08;100.00;99710.31;5177171;28;20522;-73
2024/03/01 01:02:07;;;;;;;32.00;14.35;;;;;;;4.02;100.00;99712.19;5170697;28;20032;-74
2024/03/01 01:04:38;;;;;;;32.35;13.80;;;;;;;3.89;100.00;99711.63;5174610;28;20053;-73
2024/03/01 01:07:08;;;;;;;28.88;13.30;;;;;;;3.80;100.00;99711.81;5177286;28;20526;-74
2024/03/01 01:09:39;;;;;;;32.85;14.70;;;;;;;3.69;100.00;99713.81;5163436;28;20038;-73
2024/03/01 01:12:09;;;;;;;31.02;15.10;;;;;;;3.61;100.00;99714.84;5176189;28;20519;-73
2024/03/01 01:14:39;;;;;;;34.75;15.02;;;;;;;3.63;100.00;99715.66;5177082;28;20041;-73
2024/03/01 01:17:10;;;;;;;33.05;14.90;;;;;;;3.79;100.00;99717.88;5177125;28;20029;-73
2024/03/01 01:19:40;;;;;;;31.23;14.85;;;;;;;3.89;100.00;99711.63;5176919;28;20045;-74
2024/03/01 01:22:11;;;;;;;31.23;14.02;;;;;;;3.73;100.00;99706.81;5160217;28;20120;-74
2024/03/01 01:24:41;;;;;;;31.00;14.07;;;;;;;3.63;100.00;99707.91;5177060;28;20028;-73
2024/03/01 01:27:14;;;;;;;33.53;15.43;;;;;;;3.42;100.00;99707.53;5177461;28;20046;-74
2024/03/01 01:29:45;;;;;;;32.72;14.50;;;;;;;3.44;100.00;99703.16;5177099;28;20117;-74
2024/03/01 01:32:17;;;;;;;32.85;14.82;;;;;;;3.39;100.00;99699.84;5176909;28;20057;-74
2024/03/01 01:34:47;;;;;;;33.58;15.32;;;;;;;3.51;100.00;99691.84;5175421;28;20029;-74
2024/03/01 01:37:17;;;;;;;34.55;15.30;;;;;;;3.56;100.00;99695.19;5176556;28;20060;-74
2024/03/01 01:39:48;;;;;;;32.90;15.43;;;;;;;3.46;100.00;99691.06;5177214;28;20088;-74
2024/03/01 01:42:18;;;;;;;31.40;14.55;;;;;;;3.56;100.00;99690.00;5173541;28;20021;-73
2024/03/01 01:44:49;;;;;;;33.45;15.50;;;;;;;3.54;100.00;99686.63;5176778;28;20113;-73
2024/03/01 01:47:19;;;;;;;30.30;14.38;;;;;;;3.59;100.00;99689.06;5176104;28;20127;-74
2024/03/01 01:49:50;;;;;;;36.72;14.70;;;;;;;3.65;100.00;99686.31;5176858;28;20483;-74
2024/03/01 01:52:20;;;;;;;33.97;14.63;;;;;;;3.55;100.00;99680.56;5176131;28;20030;-74
2024/03/01 01:54:51;;;;;;;31.42;14.77;;;;;;;3.57;100.00;99681.38;5176727;28;20490;-74
2024/03/01 01:57:22;;;;;;;32.58;14.20;;;;;;;3.53;100.00;99683.16;5175747;28;20022;-74
2024/03/01 01:59:53;;;;;;;33.45;15.88;;;;;;;3.52;100.00;99680.63;5170555;28;20041;-74
2024/03/01 02:02:24;;;;;;;30.70;14.32;;;;;;;3.45;100.00;99671.31;5172860;28;21335;-74
2024/03/01 02:04:54;;;;;;;39.05;15.38;;;;;;;3.47;100.00;99664.38;5175562;28;20045;-73
2024/03/01 02:07:25;;;;;;;34.35;16.02;;;;;;;3.26;100.00;99664.84;5176244;28;20034;-74
2024/03/01 02:09:55;;;;;;;37.03;15.60;;;;;;;3.32;100.00;99656.94;5174948;28;20048;-74
2024/03/01 02:12:26;;;;;;;32.85;15.63;;;;;;;3.31;100.00;99647.50;5169235;28;20116;-73
2024/03/01 02:14:56;;;;;;;35.22;15.55;;;;;;;3.27;100.00;99645.88;5158128;28;20510;-74
2024/03/01 02:17:27;;;;;;;34.65;15.52;;;;;;;3.33;100.00;99638.03;5175281;28;20117;-74
2024/03/01 02:19:57;;;;;;;36.03;15.93;;;;;;;3.36;100.00;99635.38;5176400;28;20091;-74
2024/03/01 02:22:28;;;;;;;37.47;16.27;;;;;;;3.39;100.00;99635.31;5175569;28;20018;-74
2024/03/01 02:24:58;;;;;;;35.72;15.63;;;;;;;3.37;100.00;99626.75;5176276;28;20032;-74
2024/03/01 02:27:28;;;;;;;33.50;15.20;;;;;;;3.46;100.00;99621.34;5175629;28;20061;-73
2024/03/01 02:29:59;;;;;;;34.85;15.10;;;;;;;3.44;100.00;99624.00;5176479;28;20049;-74
2024/03/01 02:32:29;;;;;;;35.53;15.35;;;;;;;3.32;100.00;99619.09;5175851;28;20018;-74
2024/03/01 02:34:59;;;;;;;34.42;14.32;;;;;;;3.38;100.00;99612.94;5175950;28;20029;-74
2024/03/01 02:37:29;;;;;;;34.72;15.02;;;;;;;3.26;100.00;99621.81;5175548;28;20053;-73
2024/03/01 02:40:00;;;;;;;32.40;14.55;;;;;;;3.18;100.00;99609.97;5176206;28;20293;-73
2024/03/01 02:42:32;;;;;;;30.80;14.45;;;;;;;3.07;100.00;99615.34;5175678;28;20018;-74
2024/03/01 02:45:03;;;;;;;31.35;14.55;;;;;;;3.02;100.00;99613.75;5177289;28;20030;-74
2024/03/01 02:47:34;;;;;;;32.00;14.50;;;;;;;3.11;100.00;99618.69;5175259;28;20026;-74
2024/03/01 02:50:08;;;;;;;33.85;14.80;;;;;;;3.27;100.00;99609.75;5176106;28;20100;-73
2024/03/01 02:52:40;;;;;;;29.98;14.10;;;;;;;3.27;100.00;99612.31;5175473;28;20022;-73
2024/03/01 02:55:11;;;;;;;32.80;14.55;;;;;;;3.37;100.00;99616.41;5176034;28;20492;-72
2024/03/01 02:57:41;;;;;;;35.10;14.68;;;;;;;3.29;100.00;99613.13;5175309;28;20022;-74
2024/03/01 03:00:12;;;;;;;38.97;15.68;;;;;;;3.31;100.00;99607.06;5175744;28;20125;-73
2024/03/01 03:02:44;;;;;;;34.42;15.85;;;;;;;3.28;100.00;99608.84;5170907;28;20029;-74
2024/03/01 03:05:15;;;;;;;37.95;15.23;;;;;;;3.37;100.00;99619.00;5174324;28;20026;-75
2024/03/01 03:07:47;;;;;;;35.60;15.90;;;;;;;3.32;100.00;99608.75;5175470;28;20623;-74
2024/03/01 03:10:17;;;;;;;39.90;15.38;;;;;;;3.33;100.00;99615.63;5175878;28;20387;-74
2024/03/01 03:12:47;;;;;;;33.58;15.30;;;;;;;3.32;100.00;99619.09;5177626;28;20030;-74
2024/03/01 03:15:18;;;;;;;37.38;15.18;;;;;;;3.25;100.00;99612.38;5178900;28;20033;-74
2024/03/01 03:17:48;;;;;;;35.60;15.35;;;;;;;3.28;100.00;99611.44;5179319;28;20030;-74
2024/03/01 03:20:19;;;;;;;34.85;15.25;;;;;;;3.19;100.00;99616.81;5179254;28;20030;-74
2024/03/01 03:22:49;;;;;;;33.45;14.52;;;;;;;3.17;100.00;99610.84;5179098;28;20357;-74
2024/03/01 03:25:20;;;;;;;32.28;15.05;;;;;;;3.24;100.00;99621.00;5178617;28;20379;-73
2024/03/01 03:27:50;;;;;;;37.92;16.15;;;;;;;3.37;100.00;99612.09;5178851;28;20028;-73
2024/03/01 03:30:20;;;;;;;34.22;16.10;;;;;;;3.22;100.00;99614.16;5179000;28;20115;-73
2024/03/01 03:32:51;;;;;;;33.75;15.35;;;;;;;3.11;100.00;99609.22;5180473;28;20116;-74
2024/03/01 03:35:21;;;;;;;38.55;16.65;;;;;;;2.95;100.00;99609.56;5178535;28;20131;-73
2024/03/01 03:37:51;;;;;;;34.85;15.20;;;;;;;2.93;100.00;99608.75;5179139;28;20459;-74
2024/03/01 03:40:22;;;;;;;37.67;15.13;;;;;;;2.99;100.00;99618.97;5178748;28;20121;-74
2024/03/01 03:42:52;;;;;;;34.80;15.57;;;;;;;2.95;100.00;99613.00;5178969;28;20025;-74
2024/03/01 03:45:22;;;;;;;33.10;14.85;;;;;;;3.01;100.00;99617.22;5178893;28;20021;-73
2024/03/01 03:47:53;;;;;;;36.17;15.43;;;;;;;2.95;100.00;99622.47;5178195;28;20040;-74
2024/03/01 03:50:24;;;;;;;36.63;16.17;;;;;;;3.17;100.00;99619.41;5177616;28;20026;-74
2024/03/01 03:52:55;;;;;;;33.63;14.77;;;;;;;3.27;100.00;99617.47;5178599;28;20033;-74
2024/03/01 03:55:26;;;;;;;34.15;14.13;;;;;;;3.31;100.00;99613.94;5162050;28;20030;-74
2024/03/01 03:57:57;;;;;;;35.28;14.95;;;;;;;3.10;100.00;99617.00;5178585;28;20033;-74
2024/03/01 04:00:28;;;;;;;31.83;14.07;;;;;;;3.13;100.00;99611.75;5177325;28;20029;-74
2024/03/01 04:02:58;;;;;;;33.15;14.95;;;;;;;3.08;100.00;99611.88;5176055;28;20048;-74
2024/03/01 04:05:29;;;;;;;32.72;14.63;;;;;;;3.10;100.00;99614.41;5175442;28;20502;-74
2024/03/01 04:07:59;;;;;;;35.45;15.98;;;;;;;3.09;100.00;99607.56;5175985;28;20159;-74
2024/03/01 04:10:30;;;;;;;34.20;15.40;;;;;;;3.07;100.00;99606.75;5178030;28;20018;-74
2024/03/01 04:13:00;;;;;;;31.98;14.38;;;;;;;3.10;100.00;99607.53;5177154;28;20026;-74
2024/03/01 04:15:30;;;;;;;35.55;14.60;;;;;;;3.14;100.00;99608.28;5179481;23;20100;-74
2024/03/01 04:18:02;;;;;;;32.40;15.30;;;;;;;3.12;100.00;99610.94;5077564;29;20075;-74
2024/03/01 04:20:34;;;;;;;32.78;14.15;;;;;;;3.03;100.00;99615.44;5093035;29;20489;-74
2024/03/01 04:23:04;;;;;;;36.40;15.18;;;;;;;2.97;100.00;99605.22;5095467;29;20043;-74
2024/03/01 04:25:34;;;;;;;37.50;15.05;;;;;;;2.96;100.00;99601.81;5095211;28;20594;-74
2024/03/01 04:28:05;;;;;;;31.60;14.55;;;;;;;2.94;100.00;99602.72;5111308;28;20123;-74
2024/03/01 04:30:35;;;;;;;36.17;14.70;;;;;;;2.86;100.00;99602.03;5094833;28;20039;-74
2024/03/01 04:33:05;;;;;;;32.95;14.73;;;;;;;2.85;100.00;99592.59;5095022;28;20032;-74
2024/03/01 04:35:36;;;;;;;33.38;14.52;;;;;;;2.92;100.00;99594.16;5094678;28;20040;-74
2024/03/01 04:38:06;;;;;;;31.27;13.68;;;;;;;2.75;100.00;99591.94;5096296;28;20319;-74
2024/03/01 04:40:43;;;;;;;30.48;13.98;;;;;;;2.53;100.00;99597.53;5093734;28;20023;-73
2024/03/01 04:43:13;;;;;;;31.67;14.30;;;;;;;2.52;100.00;99601.84;5096486;29;20028;-74
2024/03/01 04:45:43;;;;;;;31.33;13.40;;;;;;;2.46;100.00;99601.09;5094175;28;20053;-74
2024/03/01 04:48:14;;;;;;;32.45;13.80;;;;;;;2.46;100.00;99612.28;5094959;28;20035;-74
2024/03/01 04:50:44;;;;;;;29.65;13.30;;;;;;;2.42;100.00;99607.19;5093598;28;20031;-74
2024/03/01 04:53:14;;;;;;;30.30;14.25;;;;;;;2.36;100.00;99609.91;5094540;28;20039;-74
2024/03/01 04:55:45;;;;;;;34.50;14.80;;;;;;;2.52;100.00;99616.47;5094108;28;20043;-74
2024/03/01 04:58:15;;;;;;;34.80;13.88;;;;;;;2.61;100.00;99605.97;5094437;28;20044;-74
2024/03/01 05:00:45;;;;;;;34.20;14.23;;;;;;;2.65;100.00;99600.72;5093787;28;20189;-74
2024/03/01 05:03:16;;;;;;;36.60;15.40;;;;;;;2.71;100.00;99598.00;5091435;28;20181;-74
2024/03/01 05:05:46;;;;;;;35.00;15.35;;;;;;;2.61;100.00;99599.09;5093476;28;20443;-74
2024/03/01 05:08:19;;;;;;;32.90;14.57;;;;;;;2.68;100.00;99599.81;5094379;29;20028;-74
2024/03/01 05:10:50;;;;;;;38.05;14.68;;;;;;;2.60;100.00;99599.97;5094060;28;20555;-75
2024/03/01 05:13:20;;;;;;;34.83;14.57;;;;;;;2.56;100.00;99600.06;5090327;28;20130;-74
2024/03/01 05:15:51;;;;;;;40.00;15.10;;;;;;;2.47;100.00;99595.94;5093044;28;20089;-74
2024/03/01 05:18:21;;;;;;;32.90;14.25;;;;;;;2.36;100.00;99597.00;5095776;29;20073;-74
2024/03/01 05:20:55;;;;;;;36.08;15.35;;;;;;;2.38;100.00;99590.09;5094135;28;20469;-74
2024/03/01 05:23:25;;;;;;;31.98;14.32;;;;;;;2.36;100.00;99590.09;5094069;29;20069;-74
2024/03/01 05:25:55;;;;;;;32.88;14.93;;;;;;;2.48;100.00;99583.91;5094387;29;20015;-74
2024/03/01 05:28:26;;;;;;;33.75;14.85;;;;;;;2.58;100.00;99595.72;5109591;29;20085;-74
2024/03/01 05:30:56;;;;;;;41.80;15.98;;;;;;;2.68;100.00;99590.34;5090847;28;20517;-74
2024/03/01 05:33:28;;;;;;;36.47;15.05;;;;;;;2.68;100.00;99586.94;5093954;28;20059;-74
2024/03/01 05:35:58;;;;;;;34.08;14.77;;;;;;;2.68;100.00;99592.91;5094234;28;20027;-74
2024/03/01 05:38:28;;;;;;;36.53;15.10;;;;;;;2.67;100.00;99590.41;5093680;28;20024;-73
2024/03/01 05:41:00;;;;;;;34.40;15.25;;;;;;;2.84;100.00;99606.38;5095696;28;20478;-74
2024/03/01 05:43:32;;;;;;;33.08;15.18;;;;;;;2.88;100.00;99605.44;5093857;28;20123;-74
2024/03/01 05:46:13;;;;;;;34.22;14.80;;;;;;;2.90;100.00;99608.81;5093647;29;20038;-74
2024/03/01 05:48:44;;;;;;;34.50;15.00;;;;;;;2.62;100.00;99617.97;5093545;28;20034;-74
2024/03/01 05:51:14;;;;;;;34.90;15.27;;;;;;;2.64;100.00;99617.06;5093943;29;20031;-74
2024/03/01 05:53:45;;;;;;;39.67;15.85;;;;;;;2.54;100.00;99622.44;5109498;28;20039;-74
2024/03/01 05:56:18;;;;;;;35.92;15.07;;;;;;;2.53;100.00;99619.00;5094005;29;20038;-74
2024/03/01 05:58:48;;;;;;;35.30;15.32;;;;;;;2.66;100.00;99624.78;5093456;28;20024;-74
2024/03/01 06:01:20;;;;;;;35.30;15.65;;;;;;;2.68;100.00;99631.59;5094011;28;20054;-74
2024/03/01 06:03:50;;;;;;;33.88;14.77;;;;;;;2.86;100.00;99635.56;5093453;28;20024;-74
2024/03/01 06:06:21;;;;;;;33.10;15.02;;;;;;;2.81;100.00;99645.09;5093842;29;20504;-74
2024/03/01 06:08:51;;;;;;;40.22;15.90;;;;;;;2.88;100.00;99651.88;5092910;28;20038;-74
2024/03/01 06:11:21;;;;;;;37.05;16.27;;;;;;;2.94;100.00;99654.31;5089962;28;20034;-74
2024/03/01 06:13:52;;;;;;;38.08;15.45;;;;;;;2.96;100.00;99662.88;5092467;29;20118;-74
2024/03/01 06:16:22;;;;;;;38.85;16.33;;;;;;;2.92;100.00;99659.53;5093154;28;20036;-75
2024/03/01 06:18:52;;;;;;;36.00;15.82;;;;;;;3.16;100.00;99663.34;5092987;28;20028;-74
2024/03/01 06:21:23;;;;;;;36.67;15.30;;;;;;;3.24;100.00;99658.84;5094023;28;20109;-74
2024/03/01 06:23:53;;;;;;;36.40;14.70;;;;;;;3.27;100.00;99658.78;5093620;29;20027;-74
2024/03/01 06:26:24;;;;;;;37.95;16.15;;;;;;;3.33;100.00;99653.50;5105323;28;20031;-74
2024/03/01 06:28:54;;;;;;;36.85;15.90;;;;;;;3.32;100.00;99651.78;5102978;28;20032;-74
2024/03/01 06:31:24;;;;;;;35.90;15.45;;;;;;;3.46;100.00;99660.09;5103264;28;20041;-74
2024/03/01 06:33:55;;;;;;;36.13;15.35;;;;;;;3.46;100.00;99660.09;5102108;28;20046;-74
2024/03/01 06:36:26;;;;;;;35.63;15.38;;;;;;;3.52;100.00;99657.38;5101349;28;20028;-74
2024/03/01 06:38:56;;;;;;;35.70;15.23;;;;;;;3.48;100.00;99656.59;5093894;29;20024;-74
2024/03/01 06:41:26;;;;;;;37.42;15.93;;;;;;;3.50;100.00;99648.84;5092701;29;20051;-72
2024/03/01 06:43:57;;;;;;;35.65;15.80;;;;;;;3.71;100.00;99644.88;5101771;28;20028;-72
2024/03/01 06:46:27;;;;;;;35.58;15.73;;;;;;;3.73;100.00;99661.19;5097198;29;20413;-72
2024/03/01 06:49:00;;;;;;;38.45;15.90;;;;;;;3.93;100.00;99655.56;5097505;29;20721;-72
2024/03/01 06:51:30;;;;;;;37.22;15.77;;;;;;;4.00;100.00;99657.09;5097641;28;20421;-71
2024/03/01 06:54:01;;;;;;;35.92;15.82;;;;;;;4.11;100.00;99660.28;5096971;28;20028;-71
2024/03/01 06:56:31;;;;;;;33.65;15.70;;;;;;;4.20;100.00;99658.31;5096907;28;20571;-72
2024/03/01 06:59:02;;;;;;;38.17;14.80;;;;;;;4.42;100.00;99663.78;5096402;28;20059;-72
2024/03/01 07:01:32;;;;;;;36.13;15.77;;;;;;;4.51;100.00;99654.06;5092543;28;20416;-70
2024/03/01 07:04:03;;;;;;;37.38;16.15;;;;;;;4.59;100.00;99657.31;5109919;28;20071;-72
2024/03/01 07:06:34;;;;;;;38.63;16.02;;;;;;;4.60;100.00;99656.41;5129994;28;20455;-69
2024/03/01 07:09:04;;;;;;;36.92;16.00;;;;;;;4.67;100.00;99652.75;5101391;29;20027;-72
2024/03/01 07:11:35;;;;;;;32.65;15.05;;;;;;;4.71;100.00;99654.41;5093356;28;20551;-72
2024/03/01 07:14:06;;;;;;;41.20;16.83;;;;;;;4.84;100.00;99654.91;5111781;28;20039;-72
2024/03/01 07:16:36;;;;;;;42.80;16.63;;;;;;;5.01;100.00;99643.16;5093405;28;20047;-72
2024/03/01 07:19:06;;;;;;;34.92;15.68;;;;;;;5.19;100.00;99640.06;5094051;28;20485;-72
2024/03/01 07:21:37;;;;;;;34.53;16.80;;;;;;;5.17;100.00;99638.44;5094449;28;20031;-72
2024/03/01 07:24:07;;;;;;;39.10;15.73;;;;;;;5.22;100.00;99637.41;5096120;28;20086;-72
2024/03/01 07:26:37;;;;;;;35.20;15.77;;;;;;;5.61;100.00;99636.22;5096062;28;20058;-72
2024/03/01 07:29:08;;;;;;;35.38;15.65;;;;;;;5.72;100.00;99647.09;5096811;29;20572;-72
2024/03/01 07:31:38;;;;;;;34.78;16.48;;;;;;;5.91;100.00;99638.72;5111752;28;20059;-73
2024/03/01 07:34:08;;;;;;;36.08;16.25;;;;;;;6.42;100.00;99631.81;5112430;29;20039;-72
2024/03/01 07:36:39;;;;;;;33.67;15.48;;;;;;;7.60;98.68;99622.22;5111758;28;20070;-73
2024/03/01 07:39:10;;;;;;;31.05;14.23;;;;;;;8.86;89.38;99611.72;5096425;28;20456;-73
2024/03/01 07:41:41;;;;;;;28.67;13.93;;;;;;;9.94;83.39;99620.53;5095848;28;20032;-72
2024/03/01 07:44:11;;;;;;;28.88;13.55;;;;;;;10.88;79.78;99621.88;5096198;28;20497;-73
2024/03/01 07:46:41;;;;;;;26.05;12.77;;;;;;;11.93;77.14;99615.19;5095745;28;20465;-73
2024/03/01 07:49:14;;;;;;;27.80;12.80;;;;;;;12.60;74.65;99607.75;5097241;29;20036;-73
2024/03/01 07:51:49;;;;;;;26.42;13.23;;;;;;;12.43;72.95;99615.75;5095728;28;20054;-72
2024/03/01 07:54:19;;;;;;;24.92;12.60;;;;;;;13.25;71.19;99605.47;5095193;29;20090;-73
2024/03/01 07:56:50;;;;;;;23.50;11.93;;;;;;;13.48;70.12;99604.03;5095717;29;20023;-73
2024/03/01 07:59:20;;;;;;;25.55;12.75;;;;;;;13.98;69.85;99597.25;5095321;29;20019;-73
2024/03/01 08:01:50;;;;;;;24.25;12.95;;;;;;;14.29;68.52;99604.84;5093085;28;20492;-73
2024/03/01 08:04:21;;;;;;;23.23;12.55;;;;;;;14.59;68.03;99607.22;5094851;28;20024;-73
2024/03/01 08:06:51;;;;;;;23.00;12.18;;;;;;;14.66;67.87;99608.50;5095028;28;20023;-73
2024/03/01 08:09:30;;;;;;;21.40;12.40;;;;;;;14.56;67.80;99608.28;5095907;29;20024;-73
2024/03/01 08:12:00;;;;;;;26.15;12.57;;;;;;;14.52;67.63;99604.16;5109985;28;20031;-73
2024/03/01 08:14:33;;;;;;;23.98;13.05;;;;;;;14.61;68.08;99611.44;5095265;28;20086;-73
2024/03/01 08:17:05;;;;;;;22.77;12.77;;;;;;;14.94;65.50;99607.38;5095396;28;20020;-73
2024/03/01 08:19:37;;;;;;;24.65;12.45;;;;;;;14.94;65.84;99611.78;5095762;28;20036;-73
2024/03/01 08:22:14;;;;;;;24.27;13.27;;;;;;;15.17;64.70;99600.53;5095405;28;20034;-73
2024/03/01 08:24:46;;;;;;;23.92;13.15;;;;;;;15.52;64.26;99605.00;5095375;28;20059;-73
2024/03/01 08:27:22;;;;;;;26.77;13.25;;;;;;;15.29;65.54;99610.19;5095495;28;20024;-73
2024/03/01 08:29:52;;;;;;;;;;;;;;;15.23;67.07;99605.34;5095578;29;20042;-73
2024/03/01 08:32:40;;;;;;;20.70;11.97;;;;;;;15.37;66.18;99597.34;5095580;29;19919;-73
2024/03/01 08:35:18;;;;;;;24.90;13.32;;;;;;;16.07;64.45;99593.97;5095551;28;20283;-73
2024/03/01 08:37:49;;;;;;;22.58;12.68;;;;;;;16.60;64.32;99593.47;5095153;28;20052;-73
2024/03/01 08:40:41;;;;;;;22.95;12.57;;;;;;;15.57;65.19;99604.69;5095136;29;20418;-73
2024/03/01 08:43:12;;;;;;;24.27;13.07;;;;;;;15.80;64.00;99594.19;5093618;28;20035;-73
2024/03/01 08:45:43;;;;;;;22.95;13.05;;;;;;;15.91;65.14;99594.22;5095191;28;20062;-72
2024/03/01 08:48:19;;;;;;;24.38;12.43;;;;;;;16.33;64.86;99596.34;5095315;29;20130;-73
2024/03/01 08:50:51;;;;;;;22.02;13.25;;;;;;;16.29;63.45;99594.06;5093672;28;20032;-73
2024/03/01 08:53:40;;;;;;;22.13;12.73;;;;;;;17.02;63.99;99583.97;5095144;28;20035;-73
2024/03/01 08:56:20;;;;;;;22.45;12.57;;;;;;;16.64;62.57;99573.81;5093131;28;20037;-73
2024/03/01 08:58:50;;;;;;;23.33;13.10;;;;;;;16.77;63.85;99564.00;5091513;28;20106;-73
2024/03/01 09:01:48;;;;;;;23.05;12.88;;;;;;;17.44;61.03;99566.56;5111104;29;20592;-73
2024/03/01 09:04:28;;;;;;;22.42;12.55;;;;;;;16.85;63.13;99567.75;5094291;28;20119;-73
2024/03/01 09:07:13;;;;;;;25.85;13.30;;;;;;;15.82;65.65;99573.84;5091511;28;20182;-73
2024/03/01 09:09:44;;;;;;;22.33;13.05;;;;;;;16.02;64.85;99577.66;5094980;28;20073;-72
2024/03/01 09:12:25;;;;;;;25.63;13.13;;;;;;;15.71;65.53;99583.47;5094945;29;20055;-73
2024/03/01 09:15:01;;;;;;;24.55;13.02;;;;;;;15.05;67.30;99583.75;5094371;28;20020;-73
2024/03/01 09:17:34;;;;;;;29.75;14.07;;;;;;;14.17;69.46;99589.03;5094489;28;20032;-73
2024/03/01 09:20:18;;;;;;;27.63;14.20;;;;;;;13.29;72.33;99593.00;5094188;28;20097;-73
2024/03/01 09:22:48;;;;;;;29.77;13.73;;;;;;;12.95;75.03;99587.31;5093927;28;20030;-73
2024/03/01 09:25:43;;;;;;;26.10;13.55;;;;;;;12.69;75.80;99598.47;5094832;28;20024;-72
2024/03/01 09:28:24;;;;;;;26.35;13.55;;;;;;;12.71;76.68;99600.09;5308314;27;20282;-73
2024/03/01 09:30:56;;;;;;;25.55;13.18;;;;;;;12.67;77.23;99595.94;5272211;28;20127;-73
2024/03/01 09:33:26;;;;;;;26.92;14.77;;;;;;;12.81;77.03;99595.97;5257674;28;20052;-73
2024/03/01 09:35:57;;;;;;;29.00;13.95;;;;;;;12.74;76.39;99597.28;5276784;28;20561;-72
2024/03/01 09:38:27;;;;;;;28.33;14.35;;;;;;;12.68;76.55;99591.56;5274339;28;20024;-73
2024/03/01 09:41:12;;;;;;;25.33;13.10;;;;;;;13.16;77.31;99594.69;5243455;22;20133;-74
2024/03/01 09:43:54;;;;;;;25.55;13.98;;;;;;;13.14;76.33;99589.56;5186010;28;20402;-75
2024/03/01 09:46:31;;;;;;;26.35;13.27;;;;;;;13.01;76.21;99588.63;5186469;28;20069;-74
2024/03/01 09:49:34;;;;;;;28.70;14.23;;;;;;;13.13;76.93;99587.88;5202576;28;20038;-75
2024/03/01 09:52:19;;;;;;;27.40;13.45;;;;;;;13.12;78.87;99591.44;5166466;28;20038;-74
2024/03/01 09:55:25;;;;;;;31.00;13.50;;;;;;;12.90;77.90;99595.44;5162632;28;20261;-73
2024/03/01 09:58:02;;;;;;;27.05;13.00;;;;;;;13.04;77.32;99592.84;5183025;28;20097;-75
2024/03/01 10:00:39;;;;;;;26.55;13.57;;;;;;;12.88;76.35;99593.81;5166058;28;20121;-74
2024/03/01 10:03:28;;;;;;;27.02;12.48;;;;;;;12.69;77.79;99601.09;5184053;28;20037;-75
2024/03/01 10:06:14;;;;;;;26.35;13.27;;;;;;;12.61;79.52;99598.94;5181326;28;20117;-75
2024/03/01 10:08:54;;;;;;;27.00;14.07;;;;;;;12.56;81.01;99610.63;5165524;28;20018;-75
2024/03/01 10:11:39;;;;;;;26.63;12.40;;;;;;;12.46;80.49;99612.09;5182362;28;20030;-75
2024/03/01 10:14:44;;;;;;;24.40;12.63;;;;;;;12.30;80.39;99614.75;5164944;28;20435;-75
2024/03/01 10:17:29;;;;;;;24.58;13.05;;;;;;;12.32;79.98;99610.28;5166489;28;20065;-74
2024/03/01 10:20:26;;;;;;;26.33;13.30;;;;;;;12.20;81.79;99608.38;5166101;28;20022;-74
2024/03/01 10:23:20;;;;;;;28.30;12.80;;;;;;;12.27;81.81;99603.63;5170029;28;20033;-75
2024/03/01 10:26:11;;;;;;;26.45;13.43;;;;;;;12.49;81.46;99599.66;5163514;28;20468;-74
2024/03/01 10:29:13;;;;;;;23.00;11.90;;;;;;;12.73;82.98;99597.34;5165187;28;20026;-73
2024/03/01 10:32:10;;;;;;;26.80;13.18;;;;;;;13.14;82.94;99605.31;5167098;28;20038;-74
2024/03/01 10:34:40;;;;;;;26.13;12.45;;;;;;;13.40;79.95;99614.19;5163662;28;20022;-74
2024/03/01 10:37:26;;;;;;;24.33;12.77;;;;;;;13.41;80.55;99615.88;5166216;28;20034;-73
2024/03/01 10:40:12;;;;;;;;;;;;;;;13.43;81.21;99616.63;5152590;28;20030;-74
2024/03/01 10:43:04;;;;;;;23.70;12.30;;;;;;;13.46;78.89;99600.66;5167053;28;19941;-74
2024/03/01 10:45:42;;;;;;;21.05;10.70;;;;;;;13.65;78.02;99593.31;5148611;28;20034;-74
2024/03/01 10:48:14;;;;;;;20.10;10.93;;;;;;;13.79;79.18;99599.41;5153135;28;20034;-74
2024/03/01 10:50:51;;;;;;;22.85;11.18;;;;;;;13.95;78.42;99601.88;5150426;28;20030;-74
2024/03/01 10:53:30;;;;;;;20.85;11.02;;;;;;;13.91;77.44;99589.88;5152491;28;20065;-74
2024/03/01 10:56:06;;;;;;;21.35;11.25;;;;;;;13.66;77.14;99595.84;5152307;28;20627;-74
2024/03/01 10:58:50;;;;;;;24.45;12.02;;;;;;;13.69;78.07;99592.16;5152099;28;20044;-74
2024/03/01 11:01:27;;;;;;;22.92;10.88;;;;;;;13.60;77.20;99590.97;5150799;28;20057;-74
2024/03/01 11:04:16;;;;;;;25.08;11.57;;;;;;;13.61;77.35;99587.41;5151792;28;20022;-74
2024/03/01 11:07:06;;;;;;;22.75;10.88;;;;;;;13.32;78.13;99598.91;5151580;28;20049;-74
2024/03/01 11:10:04;;;;;;;22.17;11.25;;;;;;;13.16;80.66;99599.94;5160983;28;20051;-75
2024/03/01 11:12:55;;;;;;;25.15;12.00;;;;;;;13.28;79.92;99600.06;5151115;28;20044;-74
2024/03/01 11:15:28;;;;;;;25.52;11.48;;;;;;;13.30;80.53;99594.69;5151460;28;20096;-74
2024/03/01 11:18:06;;;;;;;25.85;11.93;;;;;;;13.47;80.53;99586.59;5151870;28;20022;-74
2024/03/01 11:20:44;;;;;;;20.33;11.25;;;;;;;13.52;79.23;99595.03;5152166;28;20031;-74
2024/03/01 11:23:28;;;;;;;22.77;12.10;;;;;;;13.59;79.61;99598.97;5146198;28;20511;-74
2024/03/01 11:26:19;;;;;;;19.67;10.73;;;;;;;13.56;79.16;99607.03;5148476;28;20069;-72
2024/03/01 11:28:56;;;;;;;22.80;10.93;;;;;;;13.58;79.91;99605.16;5148791;28;20026;-74
2024/03/01 11:31:31;;;;;;;23.90;11.13;;;;;;;13.47;78.28;99612.84;5149225;28;20281;-74
2024/03/01 11:34:15;;;;;;;21.60;11.40;;;;;;;13.47;78.49;99613.72;5167110;28;20310;-74
2024/03/01 11:36:49;;;;;;;18.45;9.93;;;;;;;13.64;77.67;99620.50;5148799;28;20605;-74
2024/03/01 11:39:28;;;;;;;20.88;10.57;;;;;;;13.61;77.98;99610.22;5149826;28;20049;-74
2024/03/01 11:42:21;;;;;;;20.63;10.30;;;;;;;13.32;77.00;99619.06;5148132;28;20057;-74
2024/03/01 11:45:25;;;;;;;22.45;10.73;;;;;;;13.41;76.83;99619.31;5151707;28;20026;-74
2024/03/01 11:48:20;;;;;;;20.35;10.50;;;;;;;13.49;77.98;99617.09;5149120;28;20030;-74